Pagrindinis puslapis
METAR-TAF:

METAR-TAF

Oro uostai :

Vesterosas, Švedija

platuma: 59-35N, ilguma: 016-38E, Aukštis: 6 m

Dabartinis oras

Ataskaita buvo paskelbta 23 minutes, ne 04:20 UTC
Vėjas 15 kt iš Šiaurės
Temperatūra 6°C
Drėgmė 87%
Slėgis 996 hPa
Matomumas 10 km arba daugiau
dulksna

METAR: ESOW 230420Z AUTO 01015KT 9999 -DZ BKN007/// BKN012/// OVC017/// 06/04 Q0996

Laikas: 06:43 (04:43 UTC)

Prognozė

Ataskaita buvo paskelbta 17 valandos ir 13 minutes, ne 11:30 UTC
Prognozė galioja nuo 22 metu 12 UTC su 22 metu 15 UTC
Vėjas 6 kt iš Šiaurės Vakarų
Matomumas 10 km arba daugiau
Su prošvaistėmis ne aukštis 700 ft
Tikimybė 40%
nuo 22 metu 12 UTC su 22 metu 15 UTC
Išsisklaidę debesys ne aukštis 700 ft
Su prošvaistėmis ne aukštis 1500 ft

TAF: ESOW 221130Z 2212/2215 32006KT 9999 BKN007 PROB40 2212/2215 SCT007 BKN015

Orai ataskaitas ir orų prognozės (METAR, TAF).

turimą stotys yra geltonos ir raudonos taškus žemėlapyje.

Perkelti pele per norėdami pamatyti stoties vardą.

Tada spustelėkite, norėdami matyti oro stebėjimo ir prognozės.

Norėdami pakeisti žemėlapį: spustelėkite ant žalios mygtukų su juodo kryžiaus žemyn,; žalią mygtuką su brūkšneliu, jei norite nutolinti; arba žalių rodyklių gretimoms žemėlapius.


METAR-TAF: